Time;durP1;ratioP1;P1;durP2;ratioP2;P2;SDS_P1;SDS_P2;PMS_P1;PMS_P2;Temp;Humidity;BMP_temperature;BMP_pressure;BME280_temperature;BME280_humidity;BME280_pressure;Samples;Min_cycle;Max_cycle;Signal;HPM_P1;HPM_P2
2023/02/21 02:14:55;;;;;;;8.27;5.30;;;1.30;93.10;;;;;;5021958;28;20460;-62
2023/02/21 02:17:21;;;;;;;9.53;5.60;;;1.20;92.70;;;;;;5033715;28;20785;-61
2023/02/21 02:19:52;;;;;;;7.70;5.30;;;1.20;92.90;;;;;;5023828;28;20543;-61
2023/02/21 02:22:46;;;;;;;8.40;5.03;;;1.20;92.80;;;;;;5025117;28;20758;-61
2023/02/21 02:25:30;;;;;;;11.43;6.13;;;1.20;93.00;;;;;;5026159;28;20466;-61
2023/02/21 02:27:55;;;;;;;12.77;5.57;;;1.20;92.60;;;;;;5026695;28;20430;-61
2023/02/21 02:30:42;;;;;;;13.20;5.53;;;1.10;93.20;;;;;;5025405;28;20449;-62
2023/02/21 02:33:46;;;;;;;12.47;5.90;;;1.10;92.80;;;;;;5023081;28;20188;-61
2023/02/21 02:36:17;;;;;;;10.10;4.80;;;1.10;92.50;;;;;;5025760;28;20437;-61
2023/02/21 02:38:55;;;;;;;11.07;5.20;;;1.00;92.30;;;;;;5024349;28;20847;-61
2023/02/21 02:41:32;;;;;;;11.00;5.57;;;1.00;92.80;;;;;;5027010;28;20484;-61
2023/02/21 02:44:21;;;;;;;8.20;5.47;;;1.00;93.20;;;;;;5027046;28;21135;-61
2023/02/21 02:46:48;;;;;;;11.53;5.73;;;1.00;92.80;;;;;;5025009;28;20484;-62
2023/02/21 02:49:22;;;;;;;12.43;5.33;;;1.00;93.00;;;;;;5025806;28;20454;-61
2023/02/21 02:51:49;;;;;;;8.30;5.30;;;1.00;93.50;;;;;;5022282;28;20437;-61
2023/02/21 02:54:14;;;;;;;8.90;5.30;;;1.00;93.80;;;;;;5024456;28;20551;-61
2023/02/21 02:56:40;;;;;;;11.47;5.50;;;0.90;93.70;;;;;;5031355;28;20450;-61
2023/02/21 02:59:09;;;;;;;8.63;5.77;;;0.90;93.80;;;;;;5023704;28;20286;-61
2023/02/21 03:02:08;;;;;;;7.73;4.80;;;0.90;93.80;;;;;;5023898;28;20183;-60
2023/02/21 03:04:51;;;;;;;12.13;5.67;;;0.90;93.80;;;;;;5042050;28;20462;-61
2023/02/21 03:07:24;;;;;;;7.33;4.80;;;0.90;92.90;;;;;;5025726;28;20490;-61
2023/02/21 03:09:58;;;;;;;6.53;4.70;;;0.90;93.10;;;;;;5031226;28;20515;-61
2023/02/21 03:12:33;;;;;;;8.30;5.20;;;0.80;93.30;;;;;;5029822;28;20865;-61
2023/02/21 03:15:10;;;;;;;8.10;4.90;;;0.80;93.10;;;;;;5037828;28;20413;-61
2023/02/21 03:17:41;;;;;;;9.83;5.47;;;0.80;93.90;;;;;;5029513;28;20508;-61
2023/02/21 03:20:08;;;;;;;9.03;4.80;;;0.80;94.50;;;;;;5030820;28;20518;-61
2023/02/21 03:22:34;;;;;;;12.87;5.63;;;0.80;94.50;;;;;;5027608;28;20482;-61
2023/02/21 03:25:02;;;;;;;5.70;4.77;;;0.80;93.80;;;;;;5016019;28;20456;-61
2023/02/21 03:27:29;;;;;;;6.43;4.57;;;0.80;94.00;;;;;;5029704;28;20924;-61
2023/02/21 03:30:00;;;;;;;8.37;4.57;;;0.70;93.60;;;;;;5029390;28;20446;-61
2023/02/21 03:35:00;;;;;;;7.90;4.70;;;0.70;94.40;;;;;;5028991;28;20519;-61
2023/02/21 03:37:34;;;;;;;7.17;4.77;;;0.70;94.70;;;;;;5032113;28;20436;-61
2023/02/21 03:40:00;;;;;;;12.23;5.10;;;0.70;94.60;;;;;;5024417;28;20446;-60
2023/02/21 03:42:26;;;;;;;7.23;5.00;;;0.60;93.90;;;;;;5025127;28;20444;-61
2023/02/21 03:44:51;;;;;;;6.47;4.57;;;0.60;93.60;;;;;;5029148;28;21100;-61
2023/02/21 03:47:17;;;;;;;10.70;5.20;;;0.60;93.40;;;;;;5027274;28;20575;-61
2023/02/21 03:49:43;;;;;;;8.73;4.77;;;0.60;93.90;;;;;;5028799;28;20209;-61
2023/02/21 03:52:11;;;;;;;9.53;4.80;;;0.60;93.60;;;;;;5018961;28;20211;-61
2023/02/21 03:54:37;;;;;;;10.43;5.33;;;0.60;94.20;;;;;;5032374;28;20182;-61
2023/02/21 03:57:03;;;;;;;8.77;4.90;;;0.50;94.40;;;;;;5023890;28;20502;-61
2023/02/21 03:59:29;;;;;;;7.37;4.73;;;0.50;94.60;;;;;;5028731;28;20470;-61
2023/02/21 04:01:54;;;;;;;6.03;4.67;;;0.50;94.60;;;;;;5026908;28;20234;-61
2023/02/21 04:04:20;;;;;;;12.73;5.17;;;0.50;94.50;;;;;;5033359;28;20204;-61
2023/02/21 04:06:45;;;;;;;9.20;5.73;;;0.50;94.60;;;;;;5021466;28;20183;-61
2023/02/21 04:09:11;;;;;;;9.27;5.07;;;0.50;95.30;;;;;;5027482;28;20211;-61
2023/02/21 04:11:37;;;;;;;11.73;4.77;;;0.50;95.60;;;;;;5020664;28;20669;-61
2023/02/21 04:14:03;;;;;;;5.20;4.47;;;0.50;95.30;;;;;;5033370;28;20182;-61
2023/02/21 04:16:29;;;;;;;11.00;5.37;;;0.50;95.30;;;;;;5043209;28;20172;-61
2023/02/21 04:18:56;;;;;;;7.27;5.20;;;0.50;94.90;;;;;;5023861;28;20633;-61
2023/02/21 04:21:21;;;;;;;8.60;5.00;;;0.50;95.00;;;;;;5022121;28;20520;-61
2023/02/21 04:23:47;;;;;;;9.27;5.10;;;0.50;94.50;;;;;;5027000;28;20472;-61
2023/02/21 04:26:13;;;;;;;10.60;5.90;;;0.40;94.10;;;;;;5028803;28;20175;-61
2023/02/21 04:28:39;;;;;;;11.07;5.23;;;0.40;94.00;;;;;;5026618;28;20501;-61
2023/02/21 04:31:04;;;;;;;10.80;5.50;;;0.40;93.90;;;;;;5026933;28;20824;-61
2023/02/21 04:33:30;;;;;;;7.87;5.30;;;0.30;94.70;;;;;;5027271;28;20190;-61
2023/02/21 04:35:55;;;;;;;8.63;4.97;;;0.30;95.40;;;;;;5024856;28;20190;-61
2023/02/21 04:38:21;;;;;;;9.43;5.13;;;0.30;95.30;;;;;;5022729;28;20648;-61
2023/02/21 04:40:47;;;;;;;10.70;5.00;;;0.30;95.40;;;;;;5027531;28;20344;-61
2023/02/21 04:43:12;;;;;;;8.90;4.90;;;0.30;95.90;;;;;;5030998;28;20191;-61
2023/02/21 04:45:38;;;;;;;13.67;5.67;;;0.30;96.00;;;;;;5037462;28;20269;-61
2023/02/21 04:48:04;;;;;;;13.80;5.60;;;0.30;96.00;;;;;;5026624;28;20177;-61
2023/02/21 04:50:29;;;;;;;9.90;5.50;;;0.30;96.60;;;;;;5024464;28;20196;-61
2023/02/21 04:52:55;;;;;;;12.60;6.17;;;0.30;97.00;;;;;;5026098;28;20652;-62
2023/02/21 04:55:20;;;;;;;7.03;5.63;;;0.30;96.80;;;;;;5022091;28;20177;-61
2023/02/21 04:57:46;;;;;;;8.20;4.87;;;0.30;96.50;;;;;;5028649;28;20663;-61
2023/02/21 05:00:12;;;;;;;9.10;5.60;;;0.30;96.80;;;;;;5027815;28;20221;-61
2023/02/21 05:02:42;;;;;;;14.27;5.43;;;0.30;96.50;;;;;;5023585;28;20190;-60
2023/02/21 05:05:08;;;;;;;8.50;5.37;;;0.30;96.30;;;;;;5016024;28;20551;-61
2023/02/21 05:07:33;;;;;;;8.07;5.43;;;0.30;95.90;;;;;;5024910;28;20525;-61
2023/02/21 05:09:59;;;;;;;9.53;5.70;;;0.30;96.10;;;;;;5026028;28;20899;-60
2023/02/21 05:12:24;;;;;;;12.70;5.57;;;0.30;96.50;;;;;;5021681;28;20178;-60
2023/02/21 05:14:50;;;;;;;12.40;5.30;;;0.30;97.00;;;;;;5026787;28;20190;-61
2023/02/21 05:17:16;;;;;;;9.90;5.83;;;0.40;96.50;;;;;;5036066;28;20190;-61
2023/02/21 05:19:41;;;;;;;9.70;5.73;;;0.40;95.70;;;;;;5023623;28;20213;-61
2023/02/21 05:22:07;;;;;;;9.80;5.13;;;0.40;95.30;;;;;;5014281;28;20207;-62
2023/02/21 05:24:32;;;;;;;7.33;4.97;;;0.40;95.20;;;;;;5021722;28;20706;-62
2023/02/21 05:26:58;;;;;;;9.77;4.77;;;0.40;94.00;;;;;;5021415;28;20640;-62
2023/02/21 05:29:25;;;;;;;7.90;4.70;;;0.30;93.70;;;;;;5023628;28;20202;-62
2023/02/21 05:31:50;;;;;;;10.80;6.00;;;0.30;93.80;;;;;;5022105;28;20230;-62
2023/02/21 05:34:18;;;;;;;10.47;5.87;;;0.30;93.80;;;;;;5019137;28;20868;-62
2023/02/21 05:36:44;;;;;;;9.13;5.10;;;0.30;94.00;;;;;;5023491;28;20196;-63
2023/02/21 05:39:10;;;;;;;9.90;6.10;;;0.30;93.20;;;;;;5019564;28;20450;-62
2023/02/21 05:41:35;;;;;;;17.40;5.27;;;0.30;93.10;;;;;;5021180;28;20582;-63
2023/02/21 05:44:02;;;;;;;14.40;6.30;;;0.20;93.50;;;;;;5028473;28;20210;-62
2023/02/21 05:46:37;;;;;;;8.20;6.30;;;0.20;93.80;;;;;;5018280;28;20506;-62
2023/02/21 05:49:03;;;;;;;7.70;5.43;;;0.20;93.80;;;;;;5009346;28;20543;-62
2023/02/21 05:51:41;;;;;;;10.33;5.67;;;0.20;93.90;;;;;;5023656;28;21351;-62
2023/02/21 05:54:10;;;;;;;7.50;5.53;;;0.20;93.80;;;;;;5019052;28;20875;-63
2023/02/21 05:56:38;;;;;;;8.67;5.43;;;0.20;93.50;;;;;;5015408;28;20928;-62
2023/02/21 05:59:04;;;;;;;7.10;5.10;;;0.20;93.50;;;;;;5021858;28;20460;-62
2023/02/21 06:01:29;;;;;;;9.67;6.70;;;0.10;93.40;;;;;;5025190;28;20979;-62
2023/02/21 06:03:55;;;;;;;8.67;5.20;;;0.10;93.40;;;;;;5026486;28;20446;-62
2023/02/21 06:06:21;;;;;;;9.63;5.77;;;0.10;93.80;;;;;;5017463;28;21075;-62
2023/02/21 06:08:48;;;;;;;11.03;5.97;;;0.10;93.80;;;;;;5028770;28;20214;-61
2023/02/21 06:11:20;;;;;;;10.63;5.27;;;0.10;93.90;;;;;;5072037;22;20225;-59
2023/02/21 06:13:45;;;;;;;15.00;5.37;;;0.10;94.00;;;;;;5040398;28;20442;-60
2023/02/21 06:16:11;;;;;;;8.87;5.53;;;0.00;94.10;;;;;;5045793;28;20572;-57
2023/02/21 06:18:37;;;;;;;11.00;4.97;;;0.00;94.10;;;;;;5054190;28;20233;-59
2023/02/21 06:21:02;;;;;;;8.60;4.80;;;0.00;93.60;;;;;;5048885;28;20241;-59
2023/02/21 06:23:28;;;;;;;10.10;6.53;;;0.00;93.40;;;;;;5044660;28;20171;-58
2023/02/21 06:25:53;;;;;;;8.20;5.40;;;0.00;93.40;;;;;;5028230;28;20240;-56
2023/02/21 06:28:19;;;;;;;9.00;5.17;;;0.00;93.60;;;;;;5017425;28;20621;-56
2023/02/21 06:30:45;;;;;;;8.53;6.23;;;0.00;94.00;;;;;;5024855;28;20210;-57
2023/02/21 06:33:10;;;;;;;19.20;5.70;;;0.00;94.70;;;;;;5025978;28;20190;-58
2023/02/21 06:35:36;;;;;;;14.20;5.50;;;0.00;94.60;;;;;;5026541;28;20192;-57
2023/02/21 06:38:01;;;;;;;7.67;5.17;;;0.00;95.40;;;;;;5026253;28;20716;-58
2023/02/21 06:40:27;;;;;;;11.60;6.43;;;-0.10;96.00;;;;;;5026051;28;20206;-57
2023/02/21 06:42:53;;;;;;;13.40;6.27;;;-0.10;96.40;;;;;;5026299;28;20216;-58
2023/02/21 06:45:18;;;;;;;9.70;5.30;;;-0.10;96.80;;;;;;5029847;28;20605;-57
2023/02/21 06:47:44;;;;;;;12.90;5.50;;;-0.10;96.80;;;;;;5027819;28;20186;-56
2023/02/21 06:50:09;;;;;;;9.63;6.07;;;-0.10;96.30;;;;;;5025658;28;20804;-57
2023/02/21 06:52:35;;;;;;;15.53;7.07;;;-0.10;96.40;;;;;;5027870;28;20178;-58
2023/02/21 06:55:01;;;;;;;12.63;6.40;;;-0.10;96.40;;;;;;5020030;28;20193;-57
2023/02/21 06:57:26;;;;;;;12.07;6.40;;;-0.10;96.30;;;;;;5016278;28;20833;-57
2023/02/21 06:59:52;;;;;;;10.73;5.80;;;0.00;96.10;;;;;;5024168;28;20226;-58
2023/02/21 07:02:19;;;;;;;10.57;6.20;;;-0.10;96.20;;;;;;5019851;28;20605;-58
2023/02/21 07:04:45;;;;;;;11.43;6.50;;;0.00;96.70;;;;;;5020048;28;20645;-58
2023/02/21 07:07:11;;;;;;;12.60;6.80;;;0.00;96.40;;;;;;5021390;28;20444;-59
2023/02/21 07:09:37;;;;;;;14.47;6.70;;;0.00;96.30;;;;;;5022164;28;20421;-57
2023/02/21 07:12:02;;;;;;;10.80;6.00;;;0.00;96.50;;;;;;5020528;28;20261;-57
2023/02/21 07:14:28;;;;;;;12.27;6.30;;;0.00;97.20;;;;;;5023309;28;20182;-57
2023/02/21 07:16:54;;;;;;;12.90;6.30;;;0.00;97.30;;;;;;5024141;28;20629;-58
2023/02/21 07:19:20;;;;;;;9.57;5.70;;;0.00;96.80;;;;;;5020666;28;20452;-57
2023/02/21 07:21:45;;;;;;;11.47;6.40;;;0.10;96.80;;;;;;5024393;28;20242;-57
2023/02/21 07:24:13;;;;;;;13.37;6.13;;;0.10;96.80;;;;;;5023754;28;20199;-54
2023/02/21 07:26:39;;;;;;;11.20;6.40;;;0.20;96.50;;;;;;5024333;28;20178;-59
2023/02/21 07:29:05;;;;;;;9.47;5.80;;;0.20;95.90;;;;;;5022780;28;20436;-58
2023/02/21 07:31:30;;;;;;;12.90;6.57;;;0.30;95.90;;;;;;5026667;28;20202;-59
2023/02/21 07:33:56;;;;;;;12.00;7.33;;;0.30;94.40;;;;;;5027770;28;21198;-64
2023/02/21 07:36:22;;;;;;;10.63;5.50;;;0.40;93.80;;;;;;5027704;28;20168;-58
2023/02/21 07:38:48;;;;;;;13.13;6.73;;;0.40;93.80;;;;;;5024470;28;20176;-60
2023/02/21 07:41:15;;;;;;;15.97;6.90;;;0.50;95.20;;;;;;5020994;28;20225;-58
2023/02/21 07:43:41;;;;;;;10.53;6.50;;;0.60;95.20;;;;;;5017908;28;20467;-57
2023/02/21 07:46:15;;;;;;;11.90;6.40;;;0.60;95.10;;;;;;5023131;28;20931;-58
2023/02/21 07:48:41;;;;;;;10.97;7.27;;;0.70;94.70;;;;;;5019298;28;20498;-58
2023/02/21 07:51:08;;;;;;;9.83;6.70;;;0.70;94.20;;;;;;5021436;28;20461;-58
2023/02/21 07:53:34;;;;;;;14.80;7.50;;;0.80;94.10;;;;;;5020779;28;20847;-58
2023/02/21 07:56:00;;;;;;;14.57;6.93;;;0.80;94.70;;;;;;5020631;28;20440;-58
2023/02/21 07:58:26;;;;;;;17.13;7.27;;;0.90;95.10;;;;;;5020526;28;20530;-59
2023/02/21 08:00:54;;;;;;;17.27;7.70;;;0.90;95.70;;;;;;5020793;28;20838;-58
2023/02/21 08:03:20;;;;;;;26.13;8.47;;;1.00;95.60;;;;;;5020880;28;20614;-58
2023/02/21 08:05:45;;;;;;;12.57;7.37;;;1.10;95.60;;;;;;5022644;28;20503;-58
2023/02/21 08:08:11;;;;;;;16.27;8.00;;;1.10;95.40;;;;;;5025654;28;20428;-57
2023/02/21 08:10:37;;;;;;;17.67;9.43;;;1.20;95.40;;;;;;5019977;28;20215;-60
2023/02/21 08:13:04;;;;;;;14.53;8.47;;;1.30;95.30;;;;;;5044720;28;20167;-59
2023/02/21 08:15:29;;;;;;;25.77;9.07;;;1.40;95.50;;;;;;5035035;28;20234;-58
2023/02/21 08:17:55;;;;;;;12.93;8.50;;;1.50;95.20;;;;;;5022275;28;20426;-57
2023/02/21 08:20:21;;;;;;;18.03;8.57;;;1.60;94.90;;;;;;5020944;28;20211;-58
2023/02/21 08:22:46;;;;;;;18.93;9.20;;;1.70;94.10;;;;;;5024657;28;20729;-58
2023/02/21 08:25:14;;;;;;;19.77;8.43;;;1.80;93.80;;;;;;5024434;28;20262;-57
2023/02/21 08:27:41;;;;;;;15.17;8.70;;;1.90;93.00;;;;;;5038162;28;20190;-58
2023/02/21 08:30:10;;;;;;;15.23;8.53;;;2.00;91.80;;;;;;5029772;28;20507;-59
2023/02/21 08:32:35;;;;;;;15.60;7.90;;;2.10;91.10;;;;;;5026791;28;20429;-62
2023/02/21 08:35:05;;;;;;;16.43;7.97;;;2.20;90.50;;;;;;5042041;28;20413;-59
2023/02/21 08:37:34;;;;;;;13.33;7.37;;;2.30;90.40;;;;;;5041782;28;20589;-59
2023/02/21 08:40:01;;;;;;;15.13;7.27;;;2.40;90.00;;;;;;5024437;28;20549;-57
2023/02/21 08:42:26;;;;;;;12.40;6.83;;;2.50;89.80;;;;;;5031012;28;20467;-58
2023/02/21 08:44:52;;;;;;;17.90;7.77;;;2.60;90.00;;;;;;5027534;28;20466;-58
2023/02/21 08:47:17;;;;;;;14.37;7.17;;;2.70;88.60;;;;;;5020785;28;20712;-59
2023/02/21 08:49:47;;;;;;;17.10;7.07;;;2.80;87.00;;;;;;5023264;28;20186;-57
2023/02/21 08:52:17;;;;;;;16.37;7.10;;;2.90;85.80;;;;;;5019532;28;20172;-57
2023/02/21 08:54:44;;;;;;;14.43;7.17;;;2.90;86.50;;;;;;5021143;28;20443;-58
2023/02/21 08:57:09;;;;;;;11.60;7.27;;;3.00;86.50;;;;;;5020607;28;20945;-57
2023/02/21 08:59:41;;;;;;;16.47;7.43;;;3.20;87.20;;;;;;5024616;28;20517;-59
2023/02/21 09:02:16;;;;;;;16.80;7.80;;;3.30;86.30;;;;;;5021463;28;20176;-58
2023/02/21 09:04:43;;;;;;;15.50;8.27;;;3.40;84.10;;;;;;5018598;28;20866;-57
2023/02/21 09:07:10;;;;;;;17.40;8.83;;;3.50;82.00;;;;;;5020974;28;20879;-57
2023/02/21 09:09:39;;;;;;;15.93;8.20;;;3.70;82.00;;;;;;5022866;28;20477;-58
2023/02/21 09:12:08;;;;;;;20.47;8.43;;;3.70;81.30;;;;;;5019323;28;20884;-57
2023/02/21 09:14:35;;;;;;;21.57;8.60;;;3.90;80.10;;;;;;5018781;28;20438;-57
2023/02/21 09:17:01;;;;;;;17.40;8.63;;;4.00;78.60;;;;;;5020451;28;20442;-57
2023/02/21 09:19:27;;;;;;;18.03;9.50;;;4.10;76.50;;;;;;5018050;28;20439;-58
2023/02/21 09:21:55;;;;;;;15.53;7.90;;;4.20;74.90;;;;;;5020268;28;20795;-57
2023/02/21 09:24:24;;;;;;;14.87;8.20;;;4.30;74.00;;;;;;5018680;28;20282;-58
2023/02/21 09:26:54;;;;;;;15.43;7.87;;;4.50;74.00;;;;;;5019094;28;20453;-58
2023/02/21 09:29:20;;;;;;;26.33;8.57;;;4.70;73.60;;;;;;5019957;28;20434;-59
2023/02/21 09:31:46;;;;;;;25.93;9.23;;;4.90;73.60;;;;;;5019598;28;20823;-56
2023/02/21 09:34:12;;;;;;;19.60;7.90;;;5.10;72.70;;;;;;5022230;28;20445;-57
2023/02/21 09:36:37;;;;;;;14.40;6.80;;;5.30;71.60;;;;;;5016640;28;20394;-56
2023/02/21 09:39:05;;;;;;;16.67;7.23;;;5.50;70.70;;;;;;5021786;28;20187;-56
2023/02/21 09:41:32;;;;;;;12.87;6.90;;;5.70;69.70;;;;;;5016299;28;20838;-56
2023/02/21 09:43:59;;;;;;;12.10;6.67;;;5.90;69.80;;;;;;5021425;28;20429;-56
2023/02/21 09:46:44;;;;;;;8.77;5.80;;;6.10;67.70;;;;;;5022640;28;20469;-59
2023/02/21 09:49:20;;;;;;;10.33;5.60;;;6.30;67.20;;;;;;5021336;28;20895;-56
2023/02/21 09:51:48;;;;;;;8.70;5.33;;;6.40;67.40;;;;;;5019586;28;20451;-56
2023/02/21 09:54:24;;;;;;;9.60;5.70;;;6.60;67.40;;;;;;5029532;28;20445;-56
2023/02/21 09:56:50;;;;;;;7.70;5.70;;;6.80;66.50;;;;;;5024531;28;20438;-57
2023/02/21 09:59:16;;;;;;;11.27;6.00;;;7.00;66.50;;;;;;5021492;28;20406;-57
2023/02/21 10:02:09;;;;;;;13.17;5.83;;;7.20;66.70;;;;;;5012925;28;20199;-57
2023/02/21 10:04:57;;;;;;;12.93;5.70;;;7.40;66.90;;;;;;5018993;28;20543;-58
2023/02/21 10:07:33;;;;;;;8.83;5.83;;;7.60;65.30;;;;;;5023397;28;20577;-57
2023/02/21 10:10:12;;;;;;;9.53;6.00;;;7.80;65.20;;;;;;5019059;28;20453;-58
2023/02/21 10:12:59;;;;;;;9.33;5.20;;;8.00;65.10;;;;;;5021361;28;20881;-59
2023/02/21 10:15:55;;;;;;;12.03;5.97;;;8.40;64.70;;;;;;5019947;28;20423;-58
2023/02/21 10:18:34;;;;;;;10.60;5.80;;;8.60;64.00;;;;;;5024803;28;20422;-60
2023/02/21 10:21:04;;;;;;;10.33;5.33;;;8.90;63.10;;;;;;5019714;28;21057;-57
2023/02/21 10:23:50;;;;;;;9.73;5.63;;;9.20;62.20;;;;;;5026862;28;20423;-58
2023/02/21 10:26:26;;;;;;;16.90;6.70;;;9.40;61.30;;;;;;5020738;28;20973;-57
2023/02/21 10:28:53;;;;;;;11.63;6.60;;;9.60;60.90;;;;;;5023096;28;20426;-58
2023/02/21 10:31:30;;;;;;;19.50;6.50;;;9.90;60.50;;;;;;5021307;28;20453;-58
2023/02/21 10:33:55;;;;;;;16.13;6.07;;;10.00;59.30;;;;;;5024895;28;20426;-57
2023/02/21 10:36:22;;;;;;;20.23;5.60;;;10.30;58.60;;;;;;5024287;28;20523;-59
2023/02/21 10:39:13;;;;;;;10.60;4.80;;;10.60;58.00;;;;;;5022375;28;20191;-56
2023/02/21 10:41:40;;;;;;;9.90;5.13;;;10.80;56.40;;;;;;5023706;28;20575;-56
2023/02/21 10:44:21;;;;;;;8.90;3.30;;;11.00;55.20;;;;;;5023013;28;20711;-59
2023/02/21 10:46:53;;;;;;;17.10;4.07;;;11.30;55.00;;;;;;5023103;28;20411;-56
2023/02/21 10:49:33;;;;;;;7.33;3.90;;;11.50;54.40;;;;;;5018057;28;20426;-59
2023/02/21 10:52:09;;;;;;;4.63;2.90;;;11.70;53.70;;;;;;5023915;28;20425;-57
2023/02/21 10:54:35;;;;;;;9.03;3.80;;;12.00;53.10;;;;;;5021218;28;20490;-58
2023/02/21 10:57:03;;;;;;;4.10;2.30;;;12.20;52.10;;;;;;5020795;28;20426;-57
2023/02/21 10:59:32;;;;;;;7.43;2.83;;;12.40;50.30;;;;;;5019288;28;20251;-58
2023/02/21 11:02:00;;;;;;;3.23;2.80;;;12.50;48.10;;;;;;5019412;28;20616;-57
2023/02/21 11:04:37;;;;;;;5.70;3.10;;;12.60;48.60;;;;;;5022814;28;20469;-58
2023/02/21 11:07:09;;;;;;;8.90;3.07;;;12.70;47.30;;;;;;5020623;28;20433;-57
2023/02/21 11:09:54;;;;;;;10.83;3.10;;;12.90;47.10;;;;;;5022160;28;20531;-60
2023/02/21 11:12:30;;;;;;;4.17;2.40;;;13.00;43.80;;;;;;5017839;28;20509;-58
2023/02/21 11:14:56;;;;;;;3.13;2.83;;;13.20;43.70;;;;;;5019025;28;20450;-57
2023/02/21 11:17:27;;;;;;;4.57;2.70;;;13.30;44.70;;;;;;5020240;28;20434;-58
2023/02/21 11:19:57;;;;;;;5.60;2.70;;;13.50;43.70;;;;;;5019471;28;20303;-56
2023/02/21 11:22:23;;;;;;;13.33;3.37;;;13.60;43.40;;;;;;5015146;28;20511;-58
2023/02/21 11:25:01;;;;;;;4.70;3.00;;;13.80;43.90;;;;;;5019093;28;20462;-57
2023/02/21 11:27:30;;;;;;;4.20;2.87;;;14.10;43.60;;;;;;5017185;28;20324;-56
2023/02/21 11:29:55;;;;;;;3.00;2.40;;;14.40;43.40;;;;;;5018773;28;20454;-58
2023/02/21 11:32:48;;;;;;;3.13;2.20;;;14.70;43.20;;;;;;5018763;28;20480;-56
2023/02/21 11:35:31;;;;;;;4.03;2.27;;;15.00;42.00;;;;;;5013482;28;20200;-53
2023/02/21 11:37:59;;;;;;;5.43;2.00;;;15.40;40.90;;;;;;5021225;28;20839;-53
2023/02/21 11:40:40;;;;;;;3.20;2.33;;;15.80;40.30;;;;;;5017588;28;20458;-53
2023/02/21 11:43:22;;;;;;;4.63;2.07;;;16.10;39.30;;;;;;5018737;28;20443;-51
2023/02/21 11:46:17;;;;;;;5.70;2.10;;;16.60;38.30;;;;;;5018626;28;20514;-53
2023/02/21 11:48:42;;;;;;;2.60;1.97;;;17.10;36.80;;;;;;5022169;28;20803;-53
2023/02/21 11:51:46;;;;;;;5.40;2.10;;;17.50;36.30;;;;;;5017579;28;20911;-57
2023/02/21 11:54:12;;;;;;;2.20;1.77;;;17.90;36.20;;;;;;5015907;28;20258;-60
2023/02/21 11:57:12;;;;;;;3.93;1.57;;;18.30;33.70;;;;;;5020847;28;20481;-60
2023/02/21 11:59:59;;;;;;;2.50;1.63;;;18.60;33.60;;;;;;5016756;28;20497;-59
2023/02/21 12:02:35;;;;;;;3.57;1.63;;;19.20;33.60;;;;;;5019221;28;21030;-59
2023/02/21 12:05:04;;;;;;;3.70;1.83;;;19.90;33.30;;;;;;5017494;28;20469;-58
2023/02/21 12:07:39;;;;;;;2.83;1.37;;;20.60;32.40;;;;;;5018128;28;20938;-60
2023/02/21 12:10:25;;;;;;;1.13;1.00;;;21.30;31.30;;;;;;5018080;28;20869;-59
2023/02/21 12:13:00;;;;;;;2.93;1.20;;;21.70;28.80;;;;;;5019279;28;20426;-59
2023/02/21 12:15:32;;;;;;;1.77;1.10;;;22.10;27.90;;;;;;5019039;28;20647;-59
2023/02/21 12:18:43;;;;;;;2.70;1.27;;;22.40;27.70;;;;;;5012547;28;20206;-59
2023/02/21 12:21:35;;;;;;;8.93;1.70;;;22.90;28.10;;;;;;5020572;28;20230;-59
2023/02/21 12:24:19;;;;;;;1.98;1.02;;;23.40;28.30;;;;;;5022508;28;20271;-60
2023/02/21 12:26:54;;;;;;;1.13;1.02;;;23.80;27.40;;;;;;5017445;28;20198;-60
2023/02/21 12:29:31;;;;;;;1.50;1.30;;;24.20;26.80;;;;;;5013982;28;20194;-60
2023/02/21 12:32:15;;;;;;;3.60;1.02;;;24.50;25.80;;;;;;5018369;28;20206;-59
2023/02/21 12:34:54;;;;;;;1.23;0.90;;;24.90;25.70;;;;;;5020033;28;20207;-59
2023/02/21 12:37:29;;;;;;;1.02;0.93;;;25.10;25.20;;;;;;5017141;28;20172;-59
2023/02/21 12:40:17;;;;;;;1.20;1.00;;;25.40;24.50;;;;;;5021188;28;20197;-59
2023/02/21 12:43:21;;;;;;;1.67;1.00;;;25.70;23.70;;;;;;5012113;28;21415;-59
2023/02/21 12:45:58;;;;;;;1.95;0.60;;;26.00;24.10;;;;;;5020307;28;20383;-57
2023/02/21 12:48:24;;;;;;;3.25;0.93;;;26.30;23.40;;;;;;5020080;28;20684;-60
2023/02/21 12:50:54;;;;;;;3.30;1.10;;;26.50;22.70;;;;;;5019665;28;20224;-58
2023/02/21 12:53:41;;;;;;;1.27;1.17;;;26.50;23.00;;;;;;5019469;28;20175;-58
2023/02/21 12:56:22;;;;;;;6.82;1.38;;;26.30;23.10;;;;;;5021250;28;20278;-58
2023/02/21 12:59:08;;;;;;;1.55;1.15;;;26.10;23.40;;;;;;5019213;28;20183;-58
2023/02/21 13:01:43;;;;;;;1.77;1.13;;;25.90;23.40;;;;;;5017804;28;20686;-58
2023/02/21 13:04:21;;;;;;;2.97;0.95;;;25.80;23.90;;;;;;5022890;28;20245;-60
2023/02/21 13:07:06;;;;;;;2.53;0.80;;;25.80;22.80;;;;;;5014274;28;20193;-60
2023/02/21 13:09:48;;;;;;;1.80;1.00;;;25.80;23.10;;;;;;5018092;28;20207;-60
2023/02/21 13:12:24;;;;;;;1.48;1.35;;;25.90;22.50;;;;;;5017604;28;20195;-62
2023/02/21 13:15:17;;;;;;;2.08;1.10;;;25.70;22.70;;;;;;5019861;28;20839;-60
2023/02/21 13:17:57;;;;;;;2.65;1.48;;;25.30;23.70;;;;;;5021121;28;20196;-59
2023/02/21 13:20:26;;;;;;;2.75;1.60;;;25.10;23.90;;;;;;5016767;28;20211;-58
2023/02/21 13:26:53;;;;;;;4.07;1.70;;;24.00;24.70;;;;;;5019682;28;20223;-59
2023/02/21 13:29:27;;;;;;;2.03;1.80;;;23.50;25.00;;;;;;5013259;28;20250;-57
2023/02/21 13:32:00;;;;;;;3.47;1.67;;;23.20;25.50;;;;;;5018975;28;20632;-59
2023/02/21 13:34:35;;;;;;;3.53;1.80;;;23.10;26.20;;;;;;5015494;28;20253;-58
2023/02/21 13:37:05;;;;;;;3.10;2.07;;;23.00;26.30;;;;;;5017179;28;20428;-60
2023/02/21 13:39:36;;;;;;;5.23;2.40;;;22.90;26.30;;;;;;5016878;28;21025;-59
2023/02/21 13:42:09;;;;;;;2.20;1.70;;;22.70;26.60;;;;;;5012510;28;20512;-58
2023/02/21 13:44:41;;;;;;;2.00;1.63;;;22.60;27.20;;;;;;5018987;28;20453;-58
2023/02/21 13:47:09;;;;;;;4.63;2.20;;;22.40;26.90;;;;;;5012047;28;20434;-58
2023/02/21 13:49:46;;;;;;;2.83;2.03;;;22.30;27.10;;;;;;5014837;28;21007;-56
2023/02/21 13:52:15;;;;;;;3.80;2.33;;;22.10;27.50;;;;;;5030311;28;20454;-58
2023/02/21 13:55:08;;;;;;;2.87;2.17;;;22.00;27.80;;;;;;5019824;28;20536;-58
2023/02/21 13:57:38;;;;;;;4.37;2.57;;;22.00;27.40;;;;;;5020215;28;20430;-58
2023/02/21 14:00:23;;;;;;;4.90;2.70;;;22.00;27.20;;;;;;5018953;28;20450;-56
2023/02/21 14:03:01;;;;;;;3.20;1.90;;;21.90;26.90;;;;;;5016405;28;20408;-58
2023/02/21 14:05:48;;;;;;;;;;;;;;;;;;;;;
2023/02/21 14:08:31;;;;;;;3.73;2.60;;;21.80;28.20;;;;;;5020529;28;20502;-56
2023/02/21 14:11:06;;;;;;;2.47;2.07;;;21.60;27.20;;;;;;5016795;28;20491;-58
2023/02/21 14:13:49;;;;;;;2.70;1.90;;;21.50;27.20;;;;;;5016853;28;20414;-58
2023/02/21 14:16:18;;;;;;;5.80;2.50;;;21.50;27.40;;;;;;5018943;28;20501;-57
2023/02/21 14:18:43;;;;;;;5.17;2.90;;;21.50;26.80;;;;;;5014075;28;20439;-58
2023/02/21 14:21:21;;;;;;;2.57;1.80;;;21.50;27.00;;;;;;5017036;28;20450;-58
2023/02/21 14:24:27;;;;;;;2.63;1.40;;;21.40;26.50;;;;;;5017355;28;20187;-59
2023/02/21 14:26:55;;;;;;;3.60;1.80;;;21.30;26.20;;;;;;5014007;28;20516;-58
2023/02/21 14:29:39;;;;;;;3.43;1.20;;;21.20;26.90;;;;;;5017906;28;20872;-60
2023/02/21 14:32:07;;;;;;;1.30;1.20;;;21.30;25.70;;;;;;5016006;28;20954;-58
2023/02/21 14:34:39;;;;;;;1.50;1.40;;;21.50;25.90;;;;;;5017695;28;20457;-57
2023/02/21 14:37:13;;;;;;;1.53;1.10;;;21.70;25.30;;;;;;5014121;28;20416;-58
2023/02/21 14:39:47;;;;;;;1.43;1.10;;;22.00;24.60;;;;;;5016742;28;20511;-58
2023/02/21 14:42:13;;;;;;;3.33;1.50;;;22.20;24.70;;;;;;5014603;28;20545;-58
2023/02/21 14:45:01;;;;;;;1.47;1.37;;;22.40;24.60;;;;;;5017404;28;20552;-59
2023/02/21 14:47:45;;;;;;;1.40;1.30;;;22.60;25.00;;;;;;5008538;28;20234;-56
2023/02/21 14:50:20;;;;;;;4.93;1.60;;;22.80;24.80;;;;;;5015680;28;20446;-57
2023/02/21 14:53:04;;;;;;;5.17;1.60;;;23.00;24.80;;;;;;5020344;28;20402;-53
2023/02/21 14:55:51;;;;;;;2.67;1.50;;;23.30;25.70;;;;;;5018767;28;20438;-56
2023/02/21 14:58:29;;;;;;;1.90;1.70;;;23.70;24.50;;;;;;5016968;28;20423;-57
2023/02/21 15:01:24;;;;;;;1.60;1.30;;;24.10;24.20;;;;;;5016894;28;20531;-56
2023/02/21 15:03:59;;;;;;;14.60;2.23;;;24.50;23.90;;;;;;5019312;28;20612;-56
2023/02/21 15:06:26;;;;;;;2.57;1.50;;;24.80;24.00;;;;;;5021437;28;20462;-57
2023/02/21 15:08:53;;;;;;;2.10;1.50;;;25.30;23.50;;;;;;5021601;28;20441;-55
2023/02/21 15:11:22;;;;;;;3.90;1.90;;;25.90;23.30;;;;;;5016259;28;20462;-57
2023/02/21 15:14:08;;;;;;;2.00;1.40;;;26.20;22.50;;;;;;5019588;28;20529;-55
2023/02/21 15:16:34;;;;;;;3.70;1.60;;;25.80;22.20;;;;;;5013516;28;20438;-56
2023/02/21 15:19:01;;;;;;;2.33;1.60;;;24.20;23.30;;;;;;5019424;28;20433;-56
2023/02/21 15:21:26;;;;;;;2.60;1.80;;;22.60;24.00;;;;;;5019503;28;20450;-54
2023/02/21 15:24:13;;;;;;;4.10;1.67;;;21.20;24.70;;;;;;5021138;28;20495;-55
2023/02/21 15:26:39;;;;;;;3.80;2.00;;;19.90;25.80;;;;;;5015400;28;20229;-56
2023/02/21 15:29:16;;;;;;;4.93;1.97;;;19.00;26.70;;;;;;5018093;28;20434;-56
2023/02/21 15:31:46;;;;;;;2.13;1.70;;;18.20;27.40;;;;;;5018261;28;20622;-54
2023/02/21 15:34:19;;;;;;;5.27;2.10;;;17.70;28.10;;;;;;5012775;28;20431;-55